Daroja — P3MF7 — position and weather

sailwx.info

Track history (hours):
 
Tides and Currents Weather Stations Pressure Air Temp Water Temp Dewpoint Dewpoint Depression Visibility Wind Speed Wind Dir Waves Ship Positions

Daroja

Last reported at 2018-May-07 18:26 UTC. Time now 2018-Jun-20 07:49 UTC.
Position N 40°08' W 008°53'.
Warning: this ship's position is 43 days out of date.

Length 91 m; draft 5.5 m.

Type: Ship. MMSI: 212362000.

Date/timePositionNaut miles runAvg speedWind from/ knotsBaromVisibWave heightAir tempDewpointWater temp
2018-May-07 18:26N 40°08' W 008°53'3113.1
2018-May-07 16:03N 40°38' W 009°07'313.5
2018-May-07 15:51N 40°40' W 009°08'713.5
2018-May-07 15:20N 40°47' W 009°11'413.5
2018-May-07 15:01N 40°51' W 009°13'2713.6
2018-May-07 12:59N 41°17' W 009°23'713.5
2018-May-07 12:27N 41°24' W 009°26'613.4
2018-May-07 11:59N 41°30' W 009°29'  
2018-Apr-28 06:44N 43°49' W 007°59'914.9
2018-Apr-28 06:08N 43°53' W 007°48'214.3
2018-Apr-28 06:00N 43°53' W 007°45'612.4
2018-Apr-28 05:29N 43°53' W 007°36'611.8
2018-Apr-28 05:00N 43°53' W 007°28'611.8
2018-Apr-28 04:30N 43°52' W 007°20'  
Track history (hours):
 
Tides and Currents Weather Stations Pressure Air Temp Water Temp Dewpoint Dewpoint Depression Visibility Wind Speed Wind Dir Waves Ship Positions

Daroja

Last reported at 2018-May-07 18:26 UTC. Time now 2018-Jun-20 07:49 UTC.
Position N 40°08' W 008°53'.
Warning: this ship's position is 43 days out of date.

Length 91 m; draft 5.5 m.

Type: Ship. MMSI: 212362000.

Date/timePositionNaut miles runAvg speedWind from/ knotsBaromVisibWave heightAir tempDewpointWater temp
2018-May-07 18:26N 40°08' W 008°53'3113.1
2018-May-07 16:03N 40°38' W 009°07'313.5
2018-May-07 15:51N 40°40' W 009°08'713.5
2018-May-07 15:20N 40°47' W 009°11'413.5
2018-May-07 15:01N 40°51' W 009°13'2713.6
2018-May-07 12:59N 41°17' W 009°23'713.5
2018-May-07 12:27N 41°24' W 009°26'613.4
2018-May-07 11:59N 41°30' W 009°29'  
2018-Apr-28 06:44N 43°49' W 007°59'914.9
2018-Apr-28 06:08N 43°53' W 007°48'214.3
2018-Apr-28 06:00N 43°53' W 007°45'612.4
2018-Apr-28 05:29N 43°53' W 007°36'611.8
2018-Apr-28 05:00N 43°53' W 007°28'611.8
2018-Apr-28 04:30N 43°52' W 007°20'  

Dump ship's entire track history